Time;durP1;ratioP1;P1;durP2;ratioP2;P2;SDS_P1;SDS_P2;PMS_P1;PMS_P2;Temp;Humidity;BMP_temperature;BMP_pressure;BME280_temperature;BME280_humidity;BME280_pressure;Samples;Min_cycle;Max_cycle;Signal;HPM_P1;HPM_P2
2022/09/27 00:00:36;;;;;;;1.17;1.08;;;11.80;99.90;;;;;;5026967;28;20443;-70
2022/09/27 00:03:02;;;;;;;1.50;1.10;;;11.80;99.90;;;;;;5028110;28;20197;-71
2022/09/27 00:05:29;;;;;;;0.80;0.73;;;12.10;99.90;;;;;;5031707;28;20201;-70
2022/09/27 00:07:55;;;;;;;0.80;0.80;;;11.70;99.90;;;;;;5031199;28;20273;-71
2022/09/27 00:10:20;;;;;;;1.52;1.00;;;11.90;99.90;;;;;;5030430;28;20188;-71
2022/09/27 00:12:47;;;;;;;1.67;1.00;;;11.80;99.90;;;;;;5024344;28;20201;-70
2022/09/27 00:15:13;;;;;;;1.05;0.95;;;11.70;99.90;;;;;;5042196;28;20201;-70
2022/09/27 00:17:39;;;;;;;1.33;0.80;;;11.90;99.90;;;;;;5030041;28;20243;-71
2022/09/27 00:20:08;;;;;;;1.10;1.00;;;12.00;99.90;;;;;;5021695;28;20181;-71
2022/09/27 00:22:34;;;;;;;3.55;0.90;;;11.80;99.90;;;;;;5023621;28;20436;-71
2022/09/27 00:25:00;;;;;;;1.25;0.80;;;11.70;99.90;;;;;;5043201;28;20213;-70
2022/09/27 00:27:26;;;;;;;0.80;0.80;;;11.80;99.90;;;;;;5024901;28;20609;-71
2022/09/27 00:29:52;;;;;;;0.82;0.80;;;11.70;99.90;;;;;;5026525;28;20192;-71
2022/09/27 00:32:18;;;;;;;0.80;0.70;;;11.90;99.90;;;;;;5030212;28;20216;-72
2022/09/27 00:34:44;;;;;;;0.70;0.70;;;11.80;99.90;;;;;;5030122;28;20232;-71
2022/09/27 00:37:10;;;;;;;0.93;0.80;;;11.90;99.90;;;;;;5027463;28;20446;-70
2022/09/27 00:39:38;;;;;;;2.08;1.90;;;11.50;99.90;;;;;;5030220;28;20176;-69
2022/09/27 00:42:05;;;;;;;1.00;0.80;;;11.60;99.90;;;;;;5025938;28;20186;-70
2022/09/27 00:44:32;;;;;;;0.70;0.60;;;11.60;99.90;;;;;;5020299;28;20275;-70
2022/09/27 00:47:01;;;;;;;1.52;1.00;;;11.50;99.90;;;;;;5032435;28;22198;-71
2022/09/27 00:49:35;;;;;;;1.20;0.80;;;11.90;99.90;;;;;;5029117;28;20189;-69
2022/09/27 00:52:06;;;;;;;0.88;0.77;;;11.90;99.90;;;;;;5030601;28;20223;-70
2022/09/27 00:54:35;;;;;;;1.98;0.63;;;11.80;99.90;;;;;;5030319;28;20635;-71
2022/09/27 00:57:03;;;;;;;1.35;0.70;;;11.60;99.90;;;;;;5021923;28;20189;-70
2022/09/27 00:59:34;;;;;;;0.70;0.60;;;11.80;99.90;;;;;;5033888;28;20184;-71
2022/09/27 01:02:00;;;;;;;0.80;0.80;;;11.80;99.90;;;;;;5027632;28;20196;-69
2022/09/27 01:04:28;;;;;;;1.38;0.80;;;11.80;99.90;;;;;;5032074;28;20202;-69
2022/09/27 01:06:54;;;;;;;0.80;0.80;;;11.60;99.90;;;;;;5032847;28;20656;-72
2022/09/27 01:09:21;;;;;;;1.40;0.90;;;11.90;99.90;;;;;;5033902;28;20203;-70
2022/09/27 01:11:50;;;;;;;1.15;0.70;;;11.80;99.90;;;;;;5024970;28;20710;-71
2022/09/27 01:14:47;;;;;;;1.25;0.75;;;11.90;99.90;;;;;;5037497;28;20174;-71
2022/09/27 01:17:36;;;;;;;2.30;0.85;;;11.70;99.90;;;;;;5030135;28;20169;-70
2022/09/27 01:20:30;;;;;;;0.80;0.80;;;11.80;99.90;;;;;;5027845;28;20278;-70
2022/09/27 01:23:23;;;;;;;0.70;0.60;;;11.80;99.90;;;;;;5027110;28;20181;-71
2022/09/27 01:26:28;;;;;;;0.90;0.60;;;11.90;99.90;;;;;;5029389;28;20745;-70
2022/09/27 01:29:08;;;;;;;0.80;0.70;;;11.60;99.90;;;;;;5022790;28;20191;-70
2022/09/27 01:31:46;;;;;;;0.70;0.60;;;11.70;99.90;;;;;;5029411;28;20200;-71
2022/09/27 01:34:21;;;;;;;1.88;0.75;;;11.90;99.90;;;;;;5028374;28;20203;-71
2022/09/27 01:36:58;;;;;;;1.00;0.85;;;11.60;99.90;;;;;;5027845;28;20199;-69
2022/09/27 01:39:57;;;;;;;1.23;0.90;;;11.80;99.90;;;;;;5014975;28;20201;-69
2022/09/27 01:42:38;;;;;;;0.93;0.80;;;12.00;99.90;;;;;;5028813;28;20546;-70
2022/09/27 01:45:22;;;;;;;0.80;0.80;;;11.70;99.90;;;;;;5028671;28;20217;-71
2022/09/27 01:47:56;;;;;;;0.90;0.88;;;11.80;99.90;;;;;;5021396;28;20275;-71
2022/09/27 01:50:44;;;;;;;1.08;0.90;;;12.00;99.90;;;;;;5027718;28;20267;-70
2022/09/27 01:53:32;;;;;;;1.00;0.90;;;12.00;99.90;;;;;;5016756;28;20224;-71
2022/09/27 01:56:02;;;;;;;0.80;0.80;;;11.90;99.90;;;;;;5027168;28;20697;-72
2022/09/27 01:58:39;;;;;;;0.85;0.80;;;12.00;99.90;;;;;;5030070;28;20185;-71
2022/09/27 02:01:07;;;;;;;0.70;0.60;;;12.00;99.90;;;;;;5025901;28;20200;-70
2022/09/27 02:03:40;;;;;;;0.80;0.70;;;12.10;99.90;;;;;;5021841;28;20708;-70
2022/09/27 02:06:18;;;;;;;1.75;0.73;;;12.10;99.90;;;;;;5033027;28;20245;-69
2022/09/27 02:08:50;;;;;;;0.80;0.80;;;12.10;99.90;;;;;;5029992;28;20676;-69
2022/09/27 02:11:15;;;;;;;0.70;0.70;;;11.90;99.90;;;;;;5030825;28;20205;-71
2022/09/27 02:13:57;;;;;;;1.67;0.80;;;11.90;99.90;;;;;;5022709;28;20576;-70
2022/09/27 02:16:35;;;;;;;0.88;0.88;;;12.30;99.90;;;;;;5032933;28;20201;-70
2022/09/27 02:19:52;;;;;;;2.85;0.70;;;11.90;99.90;;;;;;5027713;28;20307;-72
2022/09/27 02:22:38;;;;;;;1.00;0.70;;;11.90;99.90;;;;;;5000651;28;20223;-69
2022/09/27 02:25:30;;;;;;;0.90;0.70;;;12.10;99.90;;;;;;5021243;28;20213;-71
2022/09/27 02:28:15;;;;;;;1.00;0.90;;;12.00;99.90;;;;;;5025679;28;20181;-70
2022/09/27 02:30:40;;;;;;;0.70;0.60;;;12.00;99.90;;;;;;5031320;28;20189;-69
2022/09/27 02:33:08;;;;;;;1.80;0.80;;;12.00;99.90;;;;;;5027714;28;20209;-70
2022/09/27 02:35:34;;;;;;;1.02;0.90;;;11.70;99.90;;;;;;5037260;28;20221;-71
2022/09/27 02:38:02;;;;;;;1.77;0.77;;;11.90;99.90;;;;;;5029205;28;20223;-71
2022/09/27 02:40:45;;;;;;;1.40;0.60;;;11.80;99.90;;;;;;5024155;28;20187;-70
2022/09/27 02:43:12;;;;;;;1.20;0.70;;;11.80;99.90;;;;;;5038506;28;20189;-71
2022/09/27 02:46:10;;;;;;;0.90;0.73;;;11.50;99.90;;;;;;5035125;28;20211;-73
2022/09/27 02:48:53;;;;;;;1.13;0.60;;;11.80;99.90;;;;;;5031928;28;20553;-70
2022/09/27 02:51:49;;;;;;;1.10;0.60;;;11.50;99.90;;;;;;5027800;28;20188;-71
2022/09/27 02:54:49;;;;;;;1.05;0.68;;;11.60;99.90;;;;;;5037467;28;20196;-71
2022/09/27 02:57:54;;;;;;;2.80;0.57;;;11.60;99.90;;;;;;5043192;28;20544;-70
2022/09/27 03:00:23;;;;;;;1.30;0.80;;;11.70;99.90;;;;;;5008908;28;20201;-70
2022/09/27 03:02:55;;;;;;;0.80;0.80;;;11.20;99.90;;;;;;5030735;28;20180;-70
2022/09/27 03:05:25;;;;;;;1.15;0.73;;;11.40;99.90;;;;;;5042999;28;20213;-69
2022/09/27 03:07:50;;;;;;;1.50;0.70;;;11.20;99.90;;;;;;5022801;28;20180;-71
2022/09/27 03:10:19;;;;;;;1.10;0.80;;;11.30;99.90;;;;;;5028531;28;20520;-71
2022/09/27 03:12:45;;;;;;;1.45;0.60;;;11.30;99.90;;;;;;5032025;28;20284;-71
2022/09/27 03:15:11;;;;;;;1.73;0.60;;;11.10;99.90;;;;;;5030604;28;20297;-70
2022/09/27 03:17:37;;;;;;;0.73;0.70;;;11.20;99.90;;;;;;5029489;28;20245;-71
2022/09/27 03:20:03;;;;;;;0.80;0.60;;;11.30;99.90;;;;;;5026578;28;20664;-71
2022/09/27 03:22:28;;;;;;;2.55;1.08;;;11.40;99.90;;;;;;5030296;28;20191;-71
2022/09/27 03:24:54;;;;;;;0.90;0.70;;;11.10;99.90;;;;;;5030344;28;20576;-69
2022/09/27 03:27:19;;;;;;;0.80;0.73;;;11.00;99.90;;;;;;5023769;28;20188;-69
2022/09/27 03:29:45;;;;;;;1.27;0.70;;;11.20;99.90;;;;;;5023400;28;20185;-70
2022/09/27 03:32:11;;;;;;;1.63;0.80;;;11.20;99.90;;;;;;5013994;28;20262;-71
2022/09/27 03:34:37;;;;;;;1.67;1.07;;;11.20;99.90;;;;;;5024688;28;20245;-70
2022/09/27 03:37:02;;;;;;;0.93;0.80;;;11.10;99.90;;;;;;5029097;28;20534;-70
2022/09/27 03:39:28;;;;;;;0.90;0.80;;;11.10;99.90;;;;;;5029738;28;20193;-70
2022/09/27 03:41:55;;;;;;;0.80;0.70;;;11.00;99.90;;;;;;5030725;28;20196;-70
2022/09/27 03:44:21;;;;;;;1.25;0.80;;;11.00;99.90;;;;;;5029818;28;20198;-70
2022/09/27 03:46:47;;;;;;;1.10;1.00;;;11.10;99.90;;;;;;5029765;28;20191;-69
2022/09/27 03:49:12;;;;;;;1.67;1.10;;;11.00;99.90;;;;;;5030240;28;20193;-71
2022/09/27 03:51:38;;;;;;;1.00;0.90;;;11.10;99.90;;;;;;5031761;28;20613;-71
2022/09/27 03:54:07;;;;;;;1.93;1.00;;;11.00;99.90;;;;;;5036221;28;20217;-70
2022/09/27 03:56:32;;;;;;;1.65;1.00;;;11.00;99.90;;;;;;5029639;28;20606;-71
2022/09/27 03:58:58;;;;;;;1.33;1.23;;;10.90;99.90;;;;;;5030858;28;20262;-70
2022/09/27 04:01:25;;;;;;;2.00;1.17;;;10.90;99.90;;;;;;5026581;28;20180;-70
2022/09/27 04:03:51;;;;;;;1.20;1.10;;;11.00;99.90;;;;;;5029133;28;20203;-71
2022/09/27 04:06:17;;;;;;;2.23;1.20;;;11.10;99.90;;;;;;5026488;28;20212;-72
2022/09/27 04:08:43;;;;;;;1.90;1.30;;;10.90;99.90;;;;;;5028944;28;20215;-70
2022/09/27 04:11:09;;;;;;;3.42;1.95;;;10.90;99.90;;;;;;5026889;28;20278;-70
2022/09/27 04:13:35;;;;;;;4.13;1.90;;;11.00;99.90;;;;;;5034890;28;20621;-71
2022/09/27 04:16:01;;;;;;;2.85;1.50;;;11.10;99.90;;;;;;5028424;28;20456;-71
2022/09/27 04:18:27;;;;;;;3.42;1.60;;;10.60;99.90;;;;;;5025918;28;20559;-70
2022/09/27 04:20:55;;;;;;;2.55;1.70;;;10.80;99.90;;;;;;5022438;28;20182;-70
2022/09/27 04:23:20;;;;;;;1.77;1.65;;;11.00;99.90;;;;;;5032242;28;20676;-70
2022/09/27 04:25:46;;;;;;;2.13;1.50;;;11.00;99.90;;;;;;5034252;28;20236;-71
2022/09/27 04:28:14;;;;;;;3.73;1.70;;;11.10;99.90;;;;;;5033809;28;20265;-71
2022/09/27 04:30:40;;;;;;;5.13;2.10;;;10.80;99.90;;;;;;5027835;28;20446;-72
2022/09/27 04:33:06;;;;;;;3.40;3.10;;;11.00;99.90;;;;;;5030429;28;20537;-72
2022/09/27 04:38:19;;;;;;;6.00;2.10;;;10.90;99.90;;;;;;5040258;28;20994;-71
2022/09/27 04:40:47;;;;;;;1.88;1.38;;;11.20;99.90;;;;;;5034482;28;20191;-71
2022/09/27 04:43:13;;;;;;;2.45;1.50;;;11.10;99.90;;;;;;5029626;28;20185;-71
2022/09/27 04:45:39;;;;;;;1.80;1.40;;;11.30;99.90;;;;;;5021304;28;20210;-71
2022/09/27 04:48:05;;;;;;;3.50;2.00;;;11.30;99.90;;;;;;5027064;28;20366;-69
2022/09/27 04:50:31;;;;;;;2.80;1.80;;;11.30;99.90;;;;;;5028077;28;20279;-69
2022/09/27 04:52:57;;;;;;;5.00;1.80;;;11.40;99.90;;;;;;5029011;28;20229;-69
2022/09/27 04:55:22;;;;;;;2.00;1.40;;;11.20;99.90;;;;;;5026313;28;20504;-69
2022/09/27 04:57:48;;;;;;;2.27;2.07;;;11.40;99.90;;;;;;5028333;28;20179;-70
2022/09/27 05:00:16;;;;;;;2.15;1.95;;;11.20;99.90;;;;;;5020472;28;20189;-70
2022/09/27 05:02:47;;;;;;;2.50;1.95;;;11.40;99.90;;;;;;5028365;28;20233;-69
2022/09/27 05:05:13;;;;;;;2.40;1.70;;;11.50;99.90;;;;;;5023632;28;20680;-69
2022/09/27 05:07:39;;;;;;;3.13;1.85;;;11.60;99.90;;;;;;5029984;28;20191;-69
2022/09/27 05:10:07;;;;;;;5.40;1.90;;;11.10;99.90;;;;;;5024734;28;20176;-70
2022/09/27 05:12:32;;;;;;;3.63;1.67;;;11.20;99.90;;;;;;5031472;28;20215;-70
2022/09/27 05:14:59;;;;;;;2.38;1.75;;;11.20;99.90;;;;;;5039861;28;20205;-70
2022/09/27 05:17:24;;;;;;;1.93;1.57;;;11.20;99.90;;;;;;5037855;28;20190;-70
2022/09/27 05:19:51;;;;;;;2.23;1.53;;;11.40;99.90;;;;;;5028094;28;20223;-69
2022/09/27 05:22:17;;;;;;;5.75;3.10;;;11.30;99.90;;;;;;5048177;28;20665;-68
2022/09/27 05:24:42;;;;;;;5.63;2.60;;;11.30;99.90;;;;;;5044420;28;20213;-70
2022/09/27 05:27:19;;;;;;;4.50;2.07;;;11.30;99.90;;;;;;5015932;28;20810;-68
2022/09/27 05:29:45;;;;;;;2.85;2.28;;;11.40;99.90;;;;;;5022603;28;20186;-69
2022/09/27 05:32:11;;;;;;;6.10;2.60;;;11.30;99.90;;;;;;5027156;28;20235;-69
2022/09/27 05:34:37;;;;;;;6.67;5.50;;;11.20;99.90;;;;;;5029566;28;20255;-70
2022/09/27 05:37:03;;;;;;;2.80;2.00;;;11.40;99.90;;;;;;5031494;28;20432;-69
2022/09/27 05:39:28;;;;;;;2.70;2.10;;;11.40;99.90;;;;;;5032345;28;20259;-67
2022/09/27 05:41:55;;;;;;;7.03;2.25;;;11.40;99.90;;;;;;5023385;28;20204;-68
2022/09/27 05:44:20;;;;;;;2.95;1.98;;;11.40;99.90;;;;;;5047520;28;20190;-69
2022/09/27 05:46:46;;;;;;;5.53;2.60;;;11.40;99.90;;;;;;5033342;28;20187;-68
2022/09/27 05:49:12;;;;;;;3.50;1.93;;;11.40;99.90;;;;;;5032388;28;20177;-60
2022/09/27 05:51:38;;;;;;;4.90;2.00;;;11.30;99.90;;;;;;5028075;28;20668;-60
2022/09/27 05:54:04;;;;;;;3.70;2.45;;;11.40;99.90;;;;;;5025285;28;20271;-59
2022/09/27 05:56:30;;;;;;;1.67;1.43;;;11.20;99.90;;;;;;5031126;28;20192;-59
2022/09/27 05:58:57;;;;;;;1.80;1.70;;;11.00;99.90;;;;;;5031431;28;20199;-56
2022/09/27 06:01:23;;;;;;;3.03;2.00;;;10.90;99.90;;;;;;5032265;28;20279;-57
2022/09/27 06:03:50;;;;;;;2.90;1.80;;;11.20;99.90;;;;;;5032017;28;20684;-57
2022/09/27 06:06:15;;;;;;;3.40;2.20;;;11.10;99.90;;;;;;5031102;28;20295;-57
2022/09/27 06:08:41;;;;;;;4.73;3.60;;;11.20;99.90;;;;;;5030884;28;20275;-57
2022/09/27 06:11:11;;;;;;;2.70;1.90;;;11.10;99.90;;;;;;5027678;28;20184;-58
2022/09/27 06:13:38;;;;;;;2.00;1.80;;;10.90;99.90;;;;;;5024622;28;20562;-57
2022/09/27 06:16:06;;;;;;;1.60;1.50;;;11.10;99.90;;;;;;5031338;28;20217;-59
2022/09/27 06:18:32;;;;;;;3.45;2.03;;;11.20;99.90;;;;;;5027531;28;20204;-63
2022/09/27 06:21:02;;;;;;;2.25;1.90;;;11.20;99.90;;;;;;5031397;28;20187;-66
2022/09/27 06:23:31;;;;;;;1.70;1.60;;;11.20;99.90;;;;;;5040143;28;20288;-67
2022/09/27 06:26:20;;;;;;;2.97;1.90;;;11.40;99.90;;;;;;5036090;28;20221;-66
2022/09/27 06:28:46;;;;;;;2.58;1.98;;;11.50;99.90;;;;;;5029956;28;20224;-62
2022/09/27 06:31:13;;;;;;;2.30;1.60;;;11.30;99.90;;;;;;5038604;28;20719;-70
2022/09/27 06:33:39;;;;;;;2.90;1.52;;;11.50;99.90;;;;;;5028777;28;20217;-69
2022/09/27 06:36:06;;;;;;;3.83;2.07;;;11.80;99.90;;;;;;5028315;28;20201;-66
2022/09/27 06:38:32;;;;;;;1.65;1.10;;;11.70;99.90;;;;;;5045697;28;20437;-63
2022/09/27 06:41:02;;;;;;;3.70;1.45;;;11.90;99.90;;;;;;5025413;28;20182;-69
2022/09/27 06:43:29;;;;;;;1.20;1.10;;;11.90;99.90;;;;;;5044813;28;20215;-68
2022/09/27 06:45:55;;;;;;;1.55;1.30;;;11.90;99.90;;;;;;5030047;28;20237;-67
2022/09/27 06:48:21;;;;;;;2.73;1.50;;;12.10;99.90;;;;;;5035295;28;20608;-69
2022/09/27 06:50:48;;;;;;;1.52;1.20;;;11.70;99.90;;;;;;5030019;28;20206;-67
2022/09/27 06:53:15;;;;;;;1.23;1.10;;;11.80;99.90;;;;;;5033619;28;20225;-67
2022/09/27 06:55:42;;;;;;;2.30;2.10;;;11.90;99.90;;;;;;5031955;28;20706;-68
2022/09/27 07:00:54;;;;;;;1.75;1.10;;;11.90;99.90;;;;;;5031805;28;20192;-69
2022/09/27 07:03:22;;;;;;;4.07;1.30;;;12.10;99.90;;;;;;5030523;28;20651;-70
2022/09/27 07:05:56;;;;;;;1.10;1.10;;;12.20;99.90;;;;;;5034105;28;20244;-58
2022/09/27 07:08:22;;;;;;;1.23;1.05;;;12.20;99.90;;;;;;5028209;28;20185;-58
2022/09/27 07:10:49;;;;;;;1.27;1.02;;;12.10;99.90;;;;;;5027046;28;20282;-58
2022/09/27 07:13:15;;;;;;;7.20;2.90;;;12.00;99.90;;;;;;5034754;28;20228;-59
2022/09/27 07:15:41;;;;;;;1.50;1.17;;;11.90;99.90;;;;;;5028051;28;20580;-58
2022/09/27 07:18:07;;;;;;;1.55;1.35;;;11.80;99.90;;;;;;5024642;28;20182;-59
2022/09/27 07:20:37;;;;;;;1.35;1.10;;;12.00;99.90;;;;;;5031035;28;20275;-65
2022/09/27 07:23:04;;;;;;;1.05;0.95;;;12.50;99.90;;;;;;5027458;28;20217;-67
2022/09/27 07:25:30;;;;;;;1.10;0.80;;;12.40;99.90;;;;;;5028471;28;20316;-64
2022/09/27 07:28:01;;;;;;;1.00;0.93;;;12.70;99.90;;;;;;5026633;28;20187;-64
2022/09/27 07:30:26;;;;;;;2.83;0.82;;;12.80;99.90;;;;;;5031913;28;20224;-67
2022/09/27 07:32:57;;;;;;;4.80;2.33;;;13.00;99.90;;;;;;5033143;28;20245;-61
2022/09/27 07:35:23;;;;;;;1.65;0.80;;;13.00;99.90;;;;;;5031824;28;20997;-60
2022/09/27 07:37:49;;;;;;;1.00;0.77;;;13.20;99.90;;;;;;5028874;28;20279;-59
2022/09/27 07:40:15;;;;;;;1.47;0.70;;;13.20;99.90;;;;;;5026773;28;21020;-60
2022/09/27 07:42:40;;;;;;;0.90;0.70;;;12.80;99.90;;;;;;5027745;28;20201;-62
2022/09/27 07:45:07;;;;;;;0.80;0.80;;;13.00;99.90;;;;;;5029072;28;20214;-60
2022/09/27 07:47:33;;;;;;;0.93;0.73;;;12.90;99.90;;;;;;5031698;28;20186;-61
2022/09/27 07:49:58;;;;;;;1.37;0.70;;;13.00;99.90;;;;;;5030562;28;20657;-59
2022/09/27 07:52:24;;;;;;;1.77;1.27;;;13.20;99.90;;;;;;5028587;28;20474;-59
2022/09/27 07:54:50;;;;;;;1.00;0.80;;;12.90;99.90;;;;;;5026467;28;20638;-64
2022/09/27 07:57:16;;;;;;;1.33;0.90;;;13.00;99.90;;;;;;5024387;28;22287;-64
2022/09/27 07:59:43;;;;;;;1.00;0.70;;;13.10;99.90;;;;;;5029957;28;20193;-66
2022/09/27 08:02:14;;;;;;;1.48;1.10;;;13.40;99.90;;;;;;5026536;28;20689;-64
2022/09/27 08:04:42;;;;;;;0.98;0.70;;;13.30;99.90;;;;;;5029296;28;20213;-63
2022/09/27 08:07:10;;;;;;;0.93;0.82;;;13.60;99.90;;;;;;5031252;28;20209;-67
2022/09/27 08:09:36;;;;;;;1.73;1.10;;;14.00;99.90;;;;;;5031891;28;20742;-66
2022/09/27 08:12:03;;;;;;;1.10;0.70;;;14.40;99.90;;;;;;5026865;28;20174;-64
2022/09/27 08:14:29;;;;;;;1.67;1.58;;;14.00;99.90;;;;;;5029143;28;20850;-64
2022/09/27 08:16:55;;;;;;;1.10;0.93;;;13.90;99.90;;;;;;5028843;28;20678;-64
2022/09/27 08:19:21;;;;;;;1.37;0.83;;;13.90;99.90;;;;;;5036428;28;20194;-70
2022/09/27 08:21:47;;;;;;;1.75;1.00;;;13.70;99.90;;;;;;5029703;28;20588;-66
2022/09/27 08:24:13;;;;;;;2.03;1.33;;;13.90;99.90;;;;;;5028353;28;20274;-66
2022/09/27 08:26:40;;;;;;;0.80;0.80;;;14.00;99.90;;;;;;5028836;28;20194;-63
2022/09/27 08:29:06;;;;;;;0.70;0.70;;;14.00;99.90;;;;;;5026603;28;20647;-66
2022/09/27 08:31:31;;;;;;;1.07;0.97;;;14.00;99.90;;;;;;5030893;28;20194;-64
2022/09/27 08:33:57;;;;;;;1.00;0.83;;;14.00;99.90;;;;;;5031092;28;20218;-65
2022/09/27 08:36:23;;;;;;;3.80;0.70;;;14.20;99.90;;;;;;5017967;28;20680;-66
2022/09/27 08:38:50;;;;;;;0.70;0.70;;;13.90;99.90;;;;;;5036215;28;20186;-63
2022/09/27 08:41:37;;;;;;;0.90;0.80;;;14.30;99.90;;;;;;5023356;28;20179;-71
2022/09/27 08:44:21;;;;;;;2.70;1.38;;;14.30;99.90;;;;;;5025302;28;20204;-73
2022/09/27 08:47:11;;;;;;;1.20;0.70;;;14.20;99.90;;;;;;5042961;28;20188;-68
2022/09/27 08:49:46;;;;;;;3.17;1.00;;;14.10;99.50;;;;;;5026462;28;20205;-66
2022/09/27 08:52:31;;;;;;;1.10;1.00;;;13.90;99.90;;;;;;5028459;28;20221;-73
2022/09/27 08:55:02;;;;;;;1.75;0.80;;;14.00;99.90;;;;;;5039649;28;20221;-69
2022/09/27 08:57:27;;;;;;;0.95;0.80;;;13.50;99.90;;;;;;5028611;28;20273;-65
2022/09/27 09:00:12;;;;;;;0.82;0.60;;;13.70;99.90;;;;;;5022489;28;20206;-67
2022/09/27 09:02:40;;;;;;;1.00;0.80;;;13.60;99.90;;;;;;5021481;28;20244;-65
2022/09/27 09:05:30;;;;;;;0.88;0.80;;;13.20;99.90;;;;;;5028209;28;20213;-66
2022/09/27 09:08:50;;;;;;;1.10;0.90;;;13.40;99.90;;;;;;5030322;28;20212;-65
2022/09/27 09:15:13;;;;;;;1.40;1.10;;;13.60;99.90;;;;;;5033121;28;20232;-59
2022/09/27 09:18:23;;;;;;;1.52;1.20;;;13.70;99.90;;;;;;4997674;28;20210;-62
2022/09/27 09:20:54;;;;;;;1.70;0.80;;;13.90;99.90;;;;;;4990077;28;20233;-62
2022/09/27 09:23:40;;;;;;;2.33;1.02;;;14.40;99.90;;;;;;5020767;28;20198;-64
2022/09/27 09:26:24;;;;;;;3.10;1.02;;;14.70;99.90;;;;;;5026809;28;20562;-63
2022/09/27 09:29:05;;;;;;;1.70;0.85;;;14.80;99.50;;;;;;5035076;28;20666;-62
2022/09/27 09:31:52;;;;;;;1.48;0.90;;;15.20;98.50;;;;;;5034199;28;20678;-62
2022/09/27 09:34:23;;;;;;;1.35;1.10;;;15.10;97.80;;;;;;5030460;28;20564;-62
2022/09/27 09:37:15;;;;;;;1.65;0.80;;;15.10;98.20;;;;;;5034393;28;20186;-62
2022/09/27 09:39:55;;;;;;;0.80;0.80;;;15.30;97.30;;;;;;5036026;28;20280;-61
2022/09/27 09:42:34;;;;;;;0.70;0.70;;;15.10;97.30;;;;;;5036268;28;20178;-60
2022/09/27 09:45:25;;;;;;;0.73;0.73;;;15.00;97.10;;;;;;5031041;28;20241;-60
2022/09/27 09:48:06;;;;;;;1.85;1.10;;;15.30;97.10;;;;;;5030686;28;20251;-60
2022/09/27 09:50:45;;;;;;;2.10;0.85;;;16.20;96.80;;;;;;5035468;28;20189;-68
2022/09/27 09:53:16;;;;;;;1.27;0.90;;;17.50;93.00;;;;;;5036504;28;20293;-68
2022/09/27 09:55:52;;;;;;;1.33;0.90;;;19.40;83.80;;;;;;5030761;28;20740;-68
2022/09/27 09:58:28;;;;;;;1.90;1.00;;;19.90;79.20;;;;;;5027902;28;20179;-70
2022/09/27 10:00:59;;;;;;;1.33;1.08;;;19.20;78.90;;;;;;5028130;28;20191;-66
2022/09/27 10:03:25;;;;;;;0.93;0.93;;;18.90;80.90;;;;;;5026448;28;20236;-66
2022/09/27 10:05:51;;;;;;;1.30;1.13;;;18.40;82.10;;;;;;5028918;28;20299;-68
2022/09/27 10:08:23;;;;;;;1.60;1.40;;;18.00;81.80;;;;;;5032863;28;20273;-67
2022/09/27 10:10:48;;;;;;;1.60;1.20;;;17.60;82.10;;;;;;5028818;28;20456;-67
2022/09/27 10:13:17;;;;;;;1.48;1.23;;;17.50;82.30;;;;;;5031348;28;20245;-67
2022/09/27 10:15:55;;;;;;;2.33;1.23;;;17.70;83.00;;;;;;5031808;28;20216;-66
2022/09/27 10:18:22;;;;;;;2.42;1.50;;;17.70;83.00;;;;;;5030739;28;20261;-67
2022/09/27 10:20:54;;;;;;;1.17;1.08;;;17.70;83.50;;;;;;5027943;28;20174;-68
2022/09/27 10:23:23;;;;;;;1.88;1.73;;;17.50;83.00;;;;;;5030340;28;20186;-66
2022/09/27 10:25:59;;;;;;;1.65;1.23;;;17.00;84.60;;;;;;5033917;28;20283;-66
2022/09/27 10:28:32;;;;;;;1.90;1.40;;;16.90;85.00;;;;;;5034773;28;20232;-67
2022/09/27 10:31:05;;;;;;;2.10;1.50;;;16.40;85.70;;;;;;5032134;28;20213;-66
2022/09/27 10:33:31;;;;;;;1.27;1.08;;;16.00;87.20;;;;;;5033133;28;20217;-67
2022/09/27 10:35:58;;;;;;;1.42;1.00;;;15.60;88.30;;;;;;5026652;28;20548;-66
2022/09/27 10:38:27;;;;;;;1.42;1.10;;;15.30;90.20;;;;;;5030903;28;20182;-69
2022/09/27 10:40:55;;;;;;;1.25;1.15;;;15.10;91.10;;;;;;5027056;28;20191;-67
2022/09/27 10:43:28;;;;;;;2.58;1.40;;;14.80;92.60;;;;;;5031358;28;20181;-67
2022/09/27 10:46:26;;;;;;;1.58;1.25;;;14.90;92.40;;;;;;5034512;28;20204;-68
2022/09/27 10:49:36;;;;;;;2.25;1.10;;;15.50;91.60;;;;;;5031481;28;20193;-68
2022/09/27 10:52:12;;;;;;;1.88;1.10;;;15.40;90.60;;;;;;4966278;28;20200;-67
2022/09/27 10:54:59;;;;;;;1.98;1.05;;;15.50;90.70;;;;;;4957171;28;20205;-72
2022/09/27 10:57:29;;;;;;;1.80;1.60;;;15.60;90.20;;;;;;5015402;28;20244;-66
2022/09/27 11:00:18;;;;;;;2.40;1.35;;;15.60;90.70;;;;;;5033189;28;20179;-64
2022/09/27 11:02:50;;;;;;;1.30;1.20;;;15.90;90.60;;;;;;5028528;28;20276;-64
2022/09/27 11:05:26;;;;;;;1.45;1.35;;;15.90;90.40;;;;;;5035421;28;20202;-66
2022/09/27 11:08:01;;;;;;;1.50;1.40;;;15.90;90.80;;;;;;5039024;28;20272;-68
2022/09/27 11:10:35;;;;;;;0.90;0.90;;;15.90;90.40;;;;;;5026761;28;20222;-64
2022/09/27 11:13:11;;;;;;;2.60;1.42;;;15.80;90.70;;;;;;5037981;28;20198;-63
2022/09/27 11:16:04;;;;;;;1.83;1.20;;;15.50;90.60;;;;;;5029654;28;20222;-64
2022/09/27 11:19:08;;;;;;;1.83;1.67;;;15.60;91.50;;;;;;5036497;28;20195;-65
2022/09/27 11:22:18;;;;;;;2.45;2.25;;;15.80;91.40;;;;;;5036772;28;20316;-64
2022/09/27 11:25:07;;;;;;;1.77;1.30;;;15.70;90.50;;;;;;5034462;28;20623;-62
2022/09/27 11:28:01;;;;;;;1.55;1.13;;;15.70;89.70;;;;;;5033253;28;20198;-63
2022/09/27 11:31:05;;;;;;;0.82;0.77;;;15.50;87.50;;;;;;5032925;28;20691;-64
2022/09/27 11:33:46;;;;;;;1.50;1.05;;;15.60;89.20;;;;;;5029877;28;20214;-67
2022/09/27 11:36:18;;;;;;;1.30;1.20;;;15.50;89.20;;;;;;5030534;28;20218;-66
2022/09/27 11:39:36;;;;;;;1.40;0.90;;;15.80;90.10;;;;;;5032375;28;20265;-65
2022/09/27 11:42:23;;;;;;;1.00;0.80;;;15.40;89.90;;;;;;5016771;28;20217;-66
2022/09/27 11:44:48;;;;;;;3.15;1.10;;;15.50;90.80;;;;;;5022261;28;20197;-61
2022/09/27 11:47:40;;;;;;;0.70;0.63;;;15.20;90.40;;;;;;5028913;28;20659;-69
2022/09/27 11:50:15;;;;;;;1.63;0.90;;;15.50;90.50;;;;;;5029759;28;20599;-67
2022/09/27 11:52:43;;;;;;;1.20;0.98;;;15.70;90.50;;;;;;5029027;28;20700;-67
2022/09/27 11:55:42;;;;;;;1.60;0.95;;;15.80;90.40;;;;;;5028882;28;20259;-66
2022/09/27 11:58:35;;;;;;;1.17;0.98;;;15.60;90.40;;;;;;5027470;28;20194;-67
2022/09/27 12:01:13;;;;;;;2.22;0.90;;;15.30;90.90;;;;;;5025809;28;20186;-68
2022/09/27 12:03:50;;;;;;;1.23;1.13;;;15.30;91.80;;;;;;5027215;28;20186;-66
2022/09/27 12:06:38;;;;;;;1.00;0.90;;;15.60;92.20;;;;;;5037058;28;20212;-64
2022/09/27 12:09:33;;;;;;;1.23;1.00;;;15.40;92.20;;;;;;5036031;28;20182;-65
2022/09/27 12:12:04;;;;;;;1.20;0.80;;;14.90;92.00;;;;;;5030982;28;20186;-62
2022/09/27 12:14:32;;;;;;;1.73;1.40;;;14.80;92.80;;;;;;5028886;28;20578;-63
2022/09/27 12:17:01;;;;;;;1.25;0.82;;;14.90;95.50;;;;;;5026101;28;20651;-63
2022/09/27 12:19:32;;;;;;;1.33;0.93;;;14.70;96.50;;;;;;5028115;28;20546;-61
2022/09/27 12:22:02;;;;;;;0.80;0.60;;;14.40;97.00;;;;;;5029760;28;20232;-61
2022/09/27 12:24:29;;;;;;;2.88;0.75;;;14.10;97.30;;;;;;5028968;28;20206;-60
2022/09/27 12:27:02;;;;;;;2.70;0.90;;;13.60;99.10;;;;;;5038276;28;20182;-60
2022/09/27 12:29:38;;;;;;;1.10;1.00;;;13.70;99.90;;;;;;5033223;28;20201;-57
2022/09/27 12:32:19;;;;;;;1.55;0.77;;;13.30;99.90;;;;;;5020601;28;20186;-57
2022/09/27 12:35:13;;;;;;;1.15;1.05;;;13.40;99.90;;;;;;5021964;28;20224;-57
2022/09/27 12:37:47;;;;;;;1.50;0.95;;;13.00;99.90;;;;;;5024785;28;20186;-57
2022/09/27 12:40:30;;;;;;;2.30;1.23;;;13.30;99.90;;;;;;5020279;28;20203;-57
2022/09/27 12:42:59;;;;;;;1.25;1.05;;;12.50;99.90;;;;;;5031375;28;20181;-73
2022/09/27 12:45:46;;;;;;;0.90;0.70;;;12.60;99.90;;;;;;5029127;28;20206;-73
2022/09/27 12:48:32;;;;;;;0.80;0.70;;;12.60;99.90;;;;;;5022121;28;20236;-62
2022/09/27 12:51:10;;;;;;;1.10;0.77;;;12.40;99.90;;;;;;5015726;28;20194;-62
2022/09/27 12:53:55;;;;;;;1.55;1.00;;;12.80;99.90;;;;;;5023142;28;20280;-61
2022/09/27 12:56:40;;;;;;;1.10;0.90;;;12.80;99.90;;;;;;5019944;28;20202;-60
2022/09/27 12:59:19;;;;;;;2.75;1.00;;;13.10;99.90;;;;;;5028500;28;20194;-60
2022/09/27 13:01:51;;;;;;;1.30;1.10;;;13.20;99.90;;;;;;5026969;28;20177;-59
2022/09/27 13:04:24;;;;;;;1.75;1.10;;;13.50;99.90;;;;;;5026199;28;20601;-59
2022/09/27 13:07:20;;;;;;;1.50;1.08;;;13.50;99.90;;;;;;5020996;28;20606;-62
2022/09/27 13:10:13;;;;;;;2.35;1.25;;;13.50;99.90;;;;;;5022789;28;20196;-64
2022/09/27 13:13:00;;;;;;;1.13;1.02;;;13.40;99.90;;;;;;5028534;28;20357;-68
2022/09/27 13:15:27;;;;;;;5.00;3.65;;;13.60;99.90;;;;;;5024246;28;20294;-61
2022/09/27 13:17:55;;;;;;;1.92;1.75;;;13.50;99.90;;;;;;5027823;28;20174;-58
2022/09/27 13:20:30;;;;;;;5.55;4.75;;;13.00;99.90;;;;;;5026070;28;20667;-60
2022/09/27 13:23:17;;;;;;;1.65;1.55;;;13.30;99.90;;;;;;5034507;28;20190;-58
2022/09/27 13:25:52;;;;;;;0.80;0.73;;;13.30;99.90;;;;;;5020839;28;20709;-59
2022/09/27 13:28:28;;;;;;;1.95;0.80;;;13.20;99.90;;;;;;5029195;28;20280;-60